Time;durP1;ratioP1;P1;durP2;ratioP2;P2;SDS_P1;SDS_P2;PMS_P1;PMS_P2;Temp;Humidity;BMP_temperature;BMP_pressure;BME280_temperature;BME280_humidity;BME280_pressure;Samples;Min_cycle;Max_cycle;Signal;HPM_P1;HPM_P2
2024/01/12 00:01:16;;;;;;;;;;;;;;;16.73;35.93;100718.06;5037210;28;1029;-57
2024/01/12 00:03:41;;;;;;;;;;;;;;;16.56;36.29;100725.72;5037768;28;1028;-58
2024/01/12 00:06:07;;;;;;;;;;;;;;;18.21;33.41;100727.97;5037567;28;1055;-58
2024/01/12 00:08:32;;;;;;;;;;;;;;;16.96;35.46;100721.34;5037079;28;1128;-57
2024/01/12 00:10:58;;;;;;;;;;;;;;;16.46;36.63;100720.25;5036734;28;2384;-56
2024/01/12 00:13:24;;;;;;;;;;;;;;;17.33;35.05;100717.38;5037515;28;1902;-56
2024/01/12 00:15:50;;;;;;;;;;;;;;;17.17;34.95;100719.38;5037165;28;1005;-56
2024/01/12 00:18:16;;;;;;;;;;;;;;;16.40;36.46;100714.75;5036979;28;1059;-56
2024/01/12 00:20:43;;;;;;;;;;;;;;;17.65;34.49;100707.91;5037110;28;1060;-57
2024/01/12 00:23:09;;;;;;;;;;;;;;;17.56;34.23;100704.13;5037131;28;1040;-57
2024/01/12 00:25:35;;;;;;;;;;;;;;;16.68;35.90;100706.25;5036934;28;989;-57
2024/01/12 00:28:00;;;;;;;;;;;;;;;17.85;33.84;100708.91;5036783;28;1410;-56
2024/01/12 00:30:26;;;;;;;;;;;;;;;17.73;34.17;100709.25;5036972;28;1124;-56
2024/01/12 00:32:52;;;;;;;;;;;;;;;16.77;36.00;100702.66;5036882;28;1508;-57
2024/01/12 00:35:17;;;;;;;;;;;;;;;16.40;36.30;100712.00;5036801;28;1922;-57
2024/01/12 00:37:43;;;;;;;;;;;;;;;17.67;34.20;100705.72;5036600;28;1068;-57
2024/01/12 00:40:08;;;;;;;;;;;;;;;17.78;33.74;100704.56;5036629;28;1010;-56
2024/01/12 00:42:34;;;;;;;;;;;;;;;16.83;35.58;100697.16;5036795;28;2637;-57
2024/01/12 00:45:00;;;;;;;;;;;;;;;18.39;32.94;100697.00;5036126;28;1131;-57
2024/01/12 00:47:25;;;;;;;;;;;;;;;17.26;34.75;100694.88;5036516;28;1069;-57
2024/01/12 00:49:51;;;;;;;;;;;;;;;17.64;34.39;100709.00;5036770;28;1132;-57
2024/01/12 00:52:16;;;;;;;;;;;;;;;18.23;33.21;100707.31;5036855;28;1068;-57
2024/01/12 00:54:42;;;;;;;;;;;;;;;17.06;35.18;100701.25;5036128;28;1969;-57
2024/01/12 00:57:08;;;;;;;;;;;;;;;16.70;35.93;100704.03;5036051;28;1134;-58
2024/01/12 00:59:33;;;;;;;;;;;;;;;18.17;33.58;100697.44;5036464;28;1040;-56
2024/01/12 01:01:59;;;;;;;;;;;;;;;17.72;33.82;100691.09;5036337;28;1111;-56
2024/01/12 01:04:28;;;;;;;;;;;;;;;16.84;35.52;100688.63;5036000;28;1044;-56
2024/01/12 01:06:53;;;;;;;;;;;;;;;16.82;35.91;100684.53;5035597;28;1136;-56
2024/01/12 01:09:19;;;;;;;;;;;;;;;18.30;33.07;100680.28;5035658;28;1044;-56
2024/01/12 01:11:44;;;;;;;;;;;;;;;16.92;35.40;100687.28;5036265;28;2374;-57
2024/01/12 01:14:10;;;;;;;;;;;;;;;16.41;36.33;100688.13;5036348;28;1926;-56
2024/01/12 01:16:35;;;;;;;;;;;;;;;16.66;35.98;100690.06;5035643;28;1083;-55
2024/01/12 01:19:01;;;;;;;;;;;;;;;18.29;33.24;100686.09;5036586;28;1195;-55
2024/01/12 01:21:27;;;;;;;;;;;;;;;17.15;34.82;100696.00;5035556;28;1139;-54
2024/01/12 01:23:54;;;;;;;;;;;;;;;17.52;34.44;100698.34;5035435;28;1079;-55
2024/01/12 01:26:19;;;;;;;;;;;;;;;18.00;33.50;100683.28;5035631;28;1104;-56
2024/01/12 01:28:45;;;;;;;;;;;;;;;16.96;35.22;100685.63;5035692;28;1111;-56
2024/01/12 01:31:10;;;;;;;;;;;;;;;16.50;35.89;100691.97;5035651;28;1083;-56
2024/01/12 01:33:36;;;;;;;;;;;;;;;16.86;35.36;100699.38;5035415;28;1921;-56
2024/01/12 01:36:01;;;;;;;;;;;;;;;18.30;32.86;100696.81;5036077;28;1084;-55
2024/01/12 01:38:27;;;;;;;;;;;;;;;16.96;35.04;100696.63;5035981;28;1110;-55
2024/01/12 01:40:53;;;;;;;;;;;;;;;16.32;36.48;100690.59;5035761;28;1830;-55
2024/01/12 01:43:19;;;;;;;;;;;;;;;17.26;34.94;100698.47;5035562;28;1102;-56
2024/01/12 01:45:44;;;;;;;;;;;;;;;18.51;32.43;100690.31;5035187;28;1134;-57
2024/01/12 01:48:10;;;;;;;;;;;;;;;17.03;34.89;100686.16;5035740;28;1040;-58
2024/01/12 01:50:36;;;;;;;;;;;;;;;16.53;35.86;100687.84;5035392;28;1025;-55
2024/01/12 01:53:01;;;;;;;;;;;;;;;16.62;35.79;100694.44;5035506;28;1001;-56
2024/01/12 01:55:28;;;;;;;;;;;;;;;18.16;33.19;100686.72;5017746;28;1914;-58
2024/01/12 01:57:53;;;;;;;;;;;;;;;16.81;35.49;100693.88;5017899;28;1048;-57
2024/01/12 02:00:19;;;;;;;;;;;;;;;16.33;36.25;100684.00;5018129;28;1060;-59
2024/01/12 02:02:44;;;;;;;;;;;;;;;18.11;33.17;100693.91;5035423;28;1033;-59
2024/01/12 02:05:10;;;;;;;;;;;;;;;17.87;33.59;100695.72;5035555;28;1079;-58
2024/01/12 02:07:38;;;;;;;;;;;;;;;16.87;35.17;100709.22;5035642;28;1052;-59
2024/01/12 02:10:04;;;;;;;;;;;;;;;16.44;36.32;100698.56;5034865;28;1040;-59
2024/01/12 02:12:30;;;;;;;;;;;;;;;17.52;34.32;100689.28;5035097;28;2517;-57
2024/01/12 02:14:56;;;;;;;;;;;;;;;17.57;33.81;100679.09;5034906;28;1973;-58
2024/01/12 02:17:21;;;;;;;;;;;;;;;16.62;35.89;100683.47;5035680;28;1119;-59
2024/01/12 02:19:47;;;;;;;;;;;;;;;16.19;36.77;100682.91;5020630;28;1207;-57
2024/01/12 02:22:12;;;;;;;;;;;;;;;17.06;35.04;100680.09;5038914;28;858;-58
2024/01/12 02:24:38;;;;;;;;;;;;;;;17.51;33.85;100684.91;5039000;28;1052;-56
2024/01/12 02:27:04;;;;;;;;;;;;;;;16.56;35.64;100688.13;5039068;28;1116;-56
2024/01/12 02:29:29;;;;;;;;;;;;;;;17.92;33.61;100696.53;5039137;28;1116;-56
2024/01/12 02:31:55;;;;;;;;;;;;;;;17.08;34.74;100699.88;5039293;28;1087;-57
2024/01/12 02:34:20;;;;;;;;;;;;;;;16.47;35.91;100689.78;5038714;28;1968;-55
2024/01/12 02:36:46;;;;;;;;;;;;;;;17.75;33.75;100680.38;5038763;28;1032;-56
2024/01/12 02:39:11;;;;;;;;;;;;;;;17.90;33.37;100681.38;5038978;28;1139;-58
2024/01/12 02:41:37;;;;;;;;;;;;;;;16.72;35.54;100683.44;5038988;28;2483;-58
2024/01/12 02:44:03;;;;;;;;;;;;;;;18.33;32.69;100684.41;5038866;28;1164;-57
2024/01/12 02:46:28;;;;;;;;;;;;;;;17.28;34.42;100698.19;5038602;28;850;-58
2024/01/12 02:48:54;;;;;;;;;;;;;;;16.63;35.81;100696.06;5038655;28;1088;-58
2024/01/12 02:51:19;;;;;;;;;;;;;;;17.52;34.05;100708.53;5038936;28;1036;-58
2024/01/12 02:53:45;;;;;;;;;;;;;;;17.27;34.36;100699.28;5038465;28;1973;-57
2024/01/12 02:56:10;;;;;;;;;;;;;;;17.21;34.55;100712.22;5038926;28;1131;-57
2024/01/12 02:58:36;;;;;;;;;;;;;;;18.64;32.13;100712.50;5038297;28;1119;-57
2024/01/12 03:01:02;;;;;;;;;;;;;;;17.13;34.70;100709.22;5038465;28;1045;-57
2024/01/12 03:03:27;;;;;;;;;;;;;;;16.64;35.54;100714.19;5038550;28;1100;-57
2024/01/12 03:05:53;;;;;;;;;;;;;;;16.66;35.56;100722.16;5038515;28;1089;-57
2024/01/12 03:08:18;;;;;;;;;;;;;;;18.29;32.65;100716.38;5038371;28;1033;-57
2024/01/12 03:10:44;;;;;;;;;;;;;;;16.96;34.81;100717.75;5037439;28;2513;-57
2024/01/12 03:13:09;;;;;;;;;;;;;;;16.94;35.30;100726.28;5038796;28;1111;-57
2024/01/12 03:15:35;;;;;;;;;;;;;;;18.31;32.63;100727.91;5038003;28;1909;-57
2024/01/12 03:18:00;;;;;;;;;;;;;;;16.95;35.08;100730.66;5037937;28;1132;-58
2024/01/12 03:20:26;;;;;;;;;;;;;;;16.98;35.21;100732.84;5038344;28;1199;-58
2024/01/12 03:22:52;;;;;;;;;;;;;;;17.74;33.63;100730.97;5038038;28;1105;-58
2024/01/12 03:25:17;;;;;;;;;;;;;;;16.68;35.35;100733.69;5038282;28;1044;-58
2024/01/12 03:27:43;;;;;;;;;;;;;;;16.66;35.79;100725.75;5037533;28;1020;-58
2024/01/12 03:30:09;;;;;;;;;;;;;;;18.35;32.49;100720.72;5036875;28;993;-58
2024/01/12 03:32:34;;;;;;;;;;;;;;;17.26;34.46;100723.19;5037950;28;1075;-57
2024/01/12 03:35:00;;;;;;;;;;;;;;;16.49;35.73;100727.94;5037708;28;1918;-58
2024/01/12 03:37:26;;;;;;;;;;;;;;;18.21;32.86;100725.22;5037770;28;1108;-57
2024/01/12 03:39:51;;;;;;;;;;;;;;;17.20;34.61;100732.53;5037890;28;1158;-58
2024/01/12 03:42:17;;;;;;;;;;;;;;;16.65;35.53;100732.31;5037952;28;2246;-57
2024/01/12 03:44:43;;;;;;;;;;;;;;;18.34;32.68;100735.59;5038177;28;1033;-58
2024/01/12 03:47:08;;;;;;;;;;;;;;;17.49;33.89;100731.91;5037189;28;1016;-58
2024/01/12 03:49:34;;;;;;;;;;;;;;;16.75;35.32;100734.25;5037598;28;1111;-57
2024/01/12 03:52:00;;;;;;;;;;;;;;;16.47;35.96;100738.38;5037240;28;1099;-59
2024/01/12 03:54:25;;;;;;;;;;;;;;;17.61;33.96;100746.16;5037558;28;1910;-56
2024/01/12 03:56:51;;;;;;;;;;;;;;;18.10;32.80;100752.81;5037618;28;1173;-57
2024/01/12 03:59:17;;;;;;;;;;;;;;;16.83;35.07;100750.16;5037421;28;893;-57
2024/01/12 04:01:45;;;;;;;;;;;;;;;16.41;36.08;100756.72;5037414;28;1023;-56
2024/01/12 04:04:11;;;;;;;;;;;;;;;17.94;33.45;100757.56;5037763;28;1036;-57
2024/01/12 04:06:37;;;;;;;;;;;;;;;17.58;33.81;100765.13;5037658;28;1084;-57
2024/01/12 04:09:03;;;;;;;;;;;;;;;16.64;35.41;100760.88;5037390;28;1036;-57
2024/01/12 04:11:28;;;;;;;;;;;;;;;16.43;35.96;100758.09;5036594;28;1832;-57
2024/01/12 04:13:54;;;;;;;;;;;;;;;18.19;33.00;100760.47;5037404;28;1901;-57
2024/01/12 04:16:20;;;;;;;;;;;;;;;17.41;34.04;100759.97;5036873;28;1060;-57
2024/01/12 04:18:45;;;;;;;;;;;;;;;16.64;35.62;100768.28;5037184;28;1092;-58
2024/01/12 04:21:11;;;;;;;;;;;;;;;18.00;33.38;100769.38;5036928;28;1172;-55
2024/01/12 04:23:37;;;;;;;;;;;;;;;17.56;33.77;100762.69;5037267;28;914;-58
2024/01/12 04:26:03;;;;;;;;;;;;;;;16.74;35.41;100763.59;5036966;28;1059;-55
2024/01/12 04:28:28;;;;;;;;;;;;;;;16.42;36.03;100781.19;5036828;28;1048;-56
2024/01/12 04:30:54;;;;;;;;;;;;;;;16.92;35.44;100772.44;5036884;28;1127;-57
2024/01/12 04:33:19;;;;;;;;;;;;;;;17.96;33.28;100782.06;5036991;28;993;-57
2024/01/12 04:35:45;;;;;;;;;;;;;;;16.76;35.65;100780.66;5036077;28;1914;-57
2024/01/12 04:38:11;;;;;;;;;;;;;;;17.02;35.12;100794.38;5037247;28;1056;-57
2024/01/12 04:40:36;;;;;;;;;;;;;;;18.49;32.49;100797.16;5036101;28;2262;-56
2024/01/12 04:43:03;;;;;;;;;;;;;;;17.14;34.64;100796.88;5036459;28;1099;-57
2024/01/12 04:45:28;;;;;;;;;;;;;;;16.57;35.89;100807.00;5036899;28;1013;-57
2024/01/12 04:47:54;;;;;;;;;;;;;;;16.32;36.27;100803.09;5036914;28;897;-56
2024/01/12 04:50:20;;;;;;;;;;;;;;;17.87;33.44;100814.81;5036688;28;1048;-58
2024/01/12 04:52:45;;;;;;;;;;;;;;;18.16;32.84;100816.06;5036473;28;1079;-58
2024/01/12 04:55:11;;;;;;;;;;;;;;;16.91;35.24;100825.72;5036252;28;1909;-58
2024/01/12 04:57:36;;;;;;;;;;;;;;;17.90;33.64;100818.94;5036185;28;1083;-61
2024/01/12 05:00:02;;;;;;;;;;;;;;;17.78;33.55;100825.56;5035951;28;915;-61
2024/01/12 05:02:28;;;;;;;;;;;;;;;16.90;35.16;100835.88;5036406;28;1028;-58
2024/01/12 05:04:53;;;;;;;;;;;;;;;16.48;36.19;100825.09;5036062;28;1215;-56
2024/01/12 05:07:19;;;;;;;;;;;;;;;16.36;36.30;100831.66;5036470;28;1000;-56
2024/01/12 05:09:45;;;;;;;;;;;;;;;18.12;33.25;100827.66;5035738;28;1047;-59
2024/01/12 05:12:10;;;;;;;;;;;;;;;16.79;35.61;100838.84;5041720;28;2454;-56
2024/01/12 05:14:36;;;;;;;;;;;;;;;16.37;36.44;100837.97;5035721;28;1910;-55
2024/01/12 05:17:02;;;;;;;;;;;;;;;16.08;37.02;100838.44;5035786;28;1213;-56
2024/01/12 05:19:27;;;;;;;;;;;;;;;17.67;34.02;100832.22;5034965;28;1478;-57
2024/01/12 05:21:53;;;;;;;;;;;;;;;17.31;34.29;100840.53;5035776;28;1115;-57
2024/01/12 05:24:18;;;;;;;;;;;;;;;16.51;35.96;100851.97;5035877;28;861;-57
2024/01/12 05:26:44;;;;;;;;;;;;;;;16.28;36.41;100851.38;5035503;28;1036;-57
2024/01/12 05:29:11;;;;;;;;;;;;;;;16.06;36.97;100859.78;5035893;28;1136;-58
2024/01/12 05:31:37;;;;;;;;;;;;;;;15.79;37.30;100862.66;5035736;28;1071;-57
2024/01/12 05:34:03;;;;;;;;;;;;;;;17.08;34.96;100870.22;5035781;28;1967;-57
2024/01/12 05:36:28;;;;;;;;;;;;;;;17.58;33.79;100864.13;5017949;28;901;-57
2024/01/12 05:38:54;;;;;;;;;;;;;;;16.49;35.68;100878.88;5035147;28;1072;-58
2024/01/12 05:41:20;;;;;;;;;;;;;;;16.00;36.65;100878.16;5034685;28;2410;-58
2024/01/12 05:43:46;;;;;;;;;;;;;;;16.30;36.07;100882.13;5035641;28;1080;-58
2024/01/12 05:46:11;;;;;;;;;;;;;;;17.74;33.74;100882.25;5035127;28;1125;-56
2024/01/12 05:48:37;;;;;;;;;;;;;;;16.78;35.22;100879.22;5035653;28;872;-57
2024/01/12 05:51:03;;;;;;;;;;;;;;;16.15;36.27;100895.78;5035201;28;1180;-57
2024/01/12 05:53:28;;;;;;;;;;;;;;;16.34;36.12;100898.88;5035797;28;1968;-59
2024/01/12 05:55:54;;;;;;;;;;;;;;;17.72;33.43;100897.38;5039452;28;1088;-56
2024/01/12 05:58:19;;;;;;;;;;;;;;;17.20;34.19;100900.16;5039679;28;1060;-57
2024/01/12 06:00:46;;;;;;;;;;;;;;;16.43;35.93;100900.00;5039435;28;1104;-52
2024/01/12 06:03:11;;;;;;;;;;;;;;;16.44;35.86;100907.16;5039174;28;1040;-56
2024/01/12 06:05:37;;;;;;;;;;;;;;;17.81;33.58;100908.63;5039098;28;1079;-56
2024/01/12 06:08:02;;;;;;;;;;;;;;;17.07;34.41;100906.22;5039566;28;977;-55
2024/01/12 06:10:28;;;;;;;;;;;;;;;16.32;36.14;100918.34;5039627;28;2330;-53
2024/01/12 06:12:54;;;;;;;;;;;;;;;16.15;36.55;100920.47;5039115;28;917;-57
2024/01/12 06:15:19;;;;;;;;;;;;;;;17.64;33.79;100914.44;5039604;28;1988;-57
2024/01/12 06:17:45;;;;;;;;;;;;;;;17.23;34.23;100916.09;5039032;28;1009;-58
2024/01/12 06:20:10;;;;;;;;;;;;;;;16.45;35.88;100918.94;5039491;28;1059;-55
2024/01/12 06:22:36;;;;;;;;;;;;;;;15.99;36.90;100920.41;5039088;28;1012;-57
2024/01/12 06:25:02;;;;;;;;;;;;;;;17.39;34.06;100918.84;5038503;28;1067;-57
2024/01/12 06:27:27;;;;;;;;;;;;;;;17.68;33.68;100921.03;5039007;28;1068;-56
2024/01/12 06:29:53;;;;;;;;;;;;;;;16.60;35.55;100919.81;5039256;28;1048;-59
2024/01/12 06:32:18;;;;;;;;;;;;;;;16.14;36.26;100916.91;5038925;28;1048;-58
2024/01/12 06:34:44;;;;;;;;;;;;;;;16.29;36.32;100921.63;5039071;28;1985;-58
2024/01/12 06:37:09;;;;;;;;;;;;;;;17.69;33.52;100923.50;5038807;28;877;-57
2024/01/12 06:39:35;;;;;;;;;;;;;;;17.14;34.55;100930.66;5039060;28;1099;-59
2024/01/12 06:42:01;;;;;;;;;;;;;;;16.43;35.87;100931.00;5038822;28;2251;-56
2024/01/12 06:44:27;;;;;;;;;;;;;;;16.17;36.32;100937.50;5039022;28;1047;-58
2024/01/12 06:46:52;;;;;;;;;;;;;;;17.66;33.48;100940.56;5038730;28;1176;-57
2024/01/12 06:49:18;;;;;;;;;;;;;;;17.38;33.92;100942.75;5038263;28;939;-58
2024/01/12 06:51:44;;;;;;;;;;;;;;;16.56;35.60;100950.81;5038761;28;1103;-58
2024/01/12 06:54:10;;;;;;;;;;;;;;;16.01;36.58;100945.63;5038382;28;1913;-59
2024/01/12 06:56:37;;;;;;;;;;;;;;;17.06;34.80;100943.84;5038452;28;1004;-56
2024/01/12 06:59:03;;;;;;;;;;;;;;;18.06;33.06;100941.63;5038313;28;1051;-58
2024/01/12 07:01:29;;;;;;;;;;;;;;;16.89;34.81;100940.53;5036968;28;904;-57
2024/01/12 07:03:54;;;;;;;;;;;;;;;16.32;35.94;100945.78;5038291;28;1083;-59
2024/01/12 07:06:20;;;;;;;;;;;;;;;16.67;35.49;100947.03;5038109;28;1037;-58
2024/01/12 07:08:46;;;;;;;;;;;;;;;17.98;33.07;100952.34;5038418;28;1032;-58
2024/01/12 07:11:11;;;;;;;;;;;;;;;17.27;34.37;100952.13;5037834;28;1847;-56
2024/01/12 07:13:37;;;;;;;;;;;;;;;16.42;35.64;100956.84;5037880;28;1902;-56
2024/01/12 07:16:03;;;;;;;;;;;;;;;16.04;36.44;100964.31;5038224;28;1108;-56
2024/01/12 07:18:28;;;;;;;;;;;;;;;17.30;34.17;100961.75;5038027;28;1057;-57
2024/01/12 07:20:56;;;;;;;;;;;;;;;17.91;33.02;100963.66;5038139;28;1048;-59
2024/01/12 07:23:22;;;;;;;;;;;;;;;16.71;35.09;100970.09;5037793;28;1123;-57
2024/01/12 07:25:47;;;;;;;;;;;;;;;16.29;36.18;100968.28;5038255;28;1516;-57
2024/01/12 07:28:13;;;;;;;;;;;;;;;17.17;34.51;100974.91;5038802;28;1139;-59
2024/01/12 07:30:40;;;;;;;;;;;;;;;17.92;33.26;100985.38;5037545;28;1095;-58
2024/01/12 07:33:06;;;;;;;;;;;;;;;16.74;35.03;100983.28;5038000;28;1042;-58
2024/01/12 07:35:31;;;;;;;;;;;;;;;16.22;36.06;100989.66;5037650;28;1914;-59
2024/01/12 07:37:57;;;;;;;;;;;;;;;16.19;36.45;100995.69;5038567;28;1115;-59
2024/01/12 07:40:23;;;;;;;;;;;;;;;17.71;33.64;101003.81;5037727;28;1143;-61
2024/01/12 07:42:48;;;;;;;;;;;;;;;17.70;33.50;101006.84;5037897;28;1274;-60
2024/01/12 07:45:14;;;;;;;;;;;;;;;16.69;35.27;101016.25;5037669;28;1084;-59
2024/01/12 07:47:39;;;;;;;;;;;;;;;16.10;36.50;101013.72;5037924;28;1068;-58
2024/01/12 07:50:06;;;;;;;;;;;;;;;17.17;34.77;101005.13;5038205;28;1144;-57
2024/01/12 07:52:32;;;;;;;;;;;;;;;17.85;33.12;101014.25;5037605;28;1012;-57
2024/01/12 07:54:57;;;;;;;;;;;;;;;16.75;35.13;101015.16;5037060;28;1910;-56
2024/01/12 07:57:23;;;;;;;;;;;;;;;16.20;36.14;101019.25;5038055;28;1092;-56
2024/01/12 07:59:48;;;;;;;;;;;;;;;17.52;33.81;101014.53;5037546;28;1250;-57
2024/01/12 08:02:15;;;;;;;;;;;;;;;17.64;33.44;101021.69;5037757;28;1259;-58
2024/01/12 08:04:40;;;;;;;;;;;;;;;16.62;35.56;101023.06;5037360;28;1017;-57
2024/01/12 08:07:06;;;;;;;;;;;;;;;16.11;36.63;101015.38;5037513;28;1040;-60
2024/01/12 08:09:32;;;;;;;;;;;;;;;17.13;34.66;101023.25;5037458;28;1207;-58
2024/01/12 08:11:58;;;;;;;;;;;;;;;17.98;32.92;101034.88;5036689;28;1183;-65
2024/01/12 08:14:23;;;;;;;;;;;;;;;16.77;35.14;101028.59;5037490;28;1902;-59
2024/01/12 08:16:49;;;;;;;;;;;;;;;16.23;36.04;101024.25;5029755;28;1072;-64
2024/01/12 08:19:15;;;;;;;;;;;;;;;17.30;34.52;101030.44;5037153;28;1279;-56
2024/01/12 08:21:41;;;;;;;;;;;;;;;17.58;33.54;101032.66;5037036;28;1071;-57
2024/01/12 08:24:06;;;;;;;;;;;;;;;16.57;35.64;101037.59;5036986;28;1048;-57
2024/01/12 08:26:32;;;;;;;;;;;;;;;16.41;35.86;101053.97;5037140;28;1145;-59
2024/01/12 08:29:01;;;;;;;;;;;;;;;17.87;33.44;101051.38;5037183;28;1069;-56
2024/01/12 08:31:28;;;;;;;;;;;;;;;17.10;34.60;101049.34;5037505;28;1077;-56
2024/01/12 08:33:53;;;;;;;;;;;;;;;16.48;35.85;101059.25;5036354;28;1972;-56
2024/01/12 08:36:19;;;;;;;;;;;;;;;16.72;35.29;101058.81;5036798;28;1151;-58
2024/01/12 08:38:45;;;;;;;;;;;;;;;17.96;33.22;101065.44;5037184;28;1113;-58
2024/01/12 08:41:10;;;;;;;;;;;;;;;16.88;34.77;101065.19;5032572;28;1429;-59
2024/01/12 08:43:36;;;;;;;;;;;;;;;16.24;36.21;101062.38;5036678;28;1013;-59
2024/01/12 08:46:02;;;;;;;;;;;;;;;16.53;35.89;101080.41;5036920;28;1329;-59
2024/01/12 08:48:28;;;;;;;;;;;;;;;17.88;33.17;101079.72;5033042;28;1431;-59
2024/01/12 08:50:53;;;;;;;;;;;;;;;17.23;34.34;101074.69;5039250;28;1350;-60
2024/01/12 08:53:19;;;;;;;;;;;;;;;16.40;35.96;101071.53;5042500;28;1331;-59
2024/01/12 08:55:44;;;;;;;;;;;;;;;16.71;35.23;101081.88;5035967;28;1990;-60
2024/01/12 08:58:10;;;;;;;;;;;;;;;18.06;33.00;101086.63;5036385;28;1005;-61
2024/01/12 09:00:35;;;;;;;;;;;;;;;16.99;34.60;101079.81;5035882;28;1343;-59
2024/01/12 09:03:01;;;;;;;;;;;;;;;16.37;35.81;101083.03;5036569;28;1076;-57
2024/01/12 09:05:27;;;;;;;;;;;;;;;17.08;34.86;101095.53;5036376;28;1254;-57
2024/01/12 09:07:52;;;;;;;;;;;;;;;17.74;33.44;101091.28;5042987;28;1064;-60
2024/01/12 09:10:18;;;;;;;;;;;;;;;16.71;35.40;101090.91;5038937;28;1086;-56
2024/01/12 09:12:43;;;;;;;;;;;;;;;16.17;36.38;101093.88;5035824;28;1013;-57
2024/01/12 09:15:09;;;;;;;;;;;;;;;16.48;35.89;101094.94;5029903;28;1909;-57
2024/01/12 09:17:35;;;;;;;;;;;;;;;17.84;33.15;101098.69;5035548;28;1057;-57
2024/01/12 09:20:01;;;;;;;;;;;;;;;17.17;34.18;101092.25;5036383;28;1179;-56
2024/01/12 09:22:26;;;;;;;;;;;;;;;16.41;35.60;101092.41;5036385;28;1016;-58
2024/01/12 09:24:52;;;;;;;;;;;;;;;16.07;36.34;101095.47;5035979;28;1116;-59
2024/01/12 09:27:17;;;;;;;;;;;;;;;17.55;33.78;101090.16;5036393;28;989;-56
2024/01/12 09:29:43;;;;;;;;;;;;;;;17.65;33.35;101098.41;5036720;28;1223;-57
2024/01/12 09:32:09;;;;;;;;;;;;;;;16.58;35.56;101086.75;5033868;28;958;-58
2024/01/12 09:34:34;;;;;;;;;;;;;;;16.38;35.96;101087.44;5034492;28;1914;-56
2024/01/12 09:37:00;;;;;;;;;;;;;;;17.85;33.17;101080.25;5033987;28;1000;-56
2024/01/12 09:39:25;;;;;;;;;;;;;;;17.08;34.67;101084.53;5035006;28;1060;-56
2024/01/12 09:41:51;;;;;;;;;;;;;;;16.37;36.12;101084.97;5035567;28;1056;-57
2024/01/12 09:44:20;;;;;;;;;;;;;;;16.18;36.53;101096.34;5034568;28;1123;-56
2024/01/12 09:46:58;;;;;;;;;;;;;;;17.73;33.69;101097.88;5035212;28;1037;-57
2024/01/12 09:49:30;;;;;;;;;;;;;;;17.26;34.22;101107.94;5035402;28;1056;-56
2024/01/12 09:51:56;;;;;;;;;;;;;;;16.47;36.01;101100.69;5035650;28;1100;-57
2024/01/12 09:54:22;;;;;;;;;;;;;;;16.21;36.55;101098.56;5035800;28;1989;-57
2024/01/12 09:56:47;;;;;;;;;;;;;;;17.76;33.49;101110.25;5036120;28;1045;-58
2024/01/12 09:59:13;;;;;;;;;;;;;;;17.19;34.62;101112.03;5035216;28;1088;-56
2024/01/12 10:01:39;;;;;;;;;;;;;;;16.46;35.98;101110.00;5035298;28;1110;-59
2024/01/12 10:04:05;;;;;;;;;;;;;;;16.43;36.22;101114.91;5018147;28;1489;-56
2024/01/12 10:06:32;;;;;;;;;;;;;;;17.86;33.52;101118.50;5035605;28;1028;-56
2024/01/12 10:08:57;;;;;;;;;;;;;;;17.32;34.40;101125.28;5044268;28;1477;-57
2024/01/12 10:11:23;;;;;;;;;;;;;;;16.48;36.13;101124.28;5043562;28;1329;-56
2024/01/12 10:13:49;;;;;;;;;;;;;;;16.70;35.95;101124.13;5035348;28;1984;-55
2024/01/12 10:16:18;;;;;;;;;;;;;;;18.04;33.22;101122.66;5035717;28;1238;-55
2024/01/12 10:18:44;;;;;;;;;;;;;;;16.94;35.10;101121.81;5044930;28;1403;-56
2024/01/12 10:21:09;;;;;;;;;;;;;;;16.38;36.39;101125.03;5041537;28;1184;-57
2024/01/12 10:23:35;;;;;;;;;;;;;;;17.10;35.07;101126.28;5035691;28;1138;-57
2024/01/12 10:26:01;;;;;;;;;;;;;;;17.87;33.91;101116.59;5035377;28;1469;-55
2024/01/12 10:28:28;;;;;;;;;;;;;;;16.72;35.67;101128.28;5035450;28;1112;-55
2024/01/12 10:30:53;;;;;;;;;;;;;;;16.19;36.72;101133.69;5033454;28;1088;-56
2024/01/12 10:33:19;;;;;;;;;;;;;;;16.90;35.57;101129.78;5043684;28;1055;-55
2024/01/12 10:35:47;;;;;;;;;;;;;;;17.98;33.61;101123.78;5035260;28;1983;-58
2024/01/12 10:38:13;;;;;;;;;;;;;;;16.77;35.74;101130.22;5035058;28;904;-54
2024/01/12 10:40:39;;;;;;;;;;;;;;;16.20;36.83;101135.34;5003702;28;1151;-57
2024/01/12 10:43:04;;;;;;;;;;;;;;;16.42;36.83;101132.50;5021667;28;1109;-55
2024/01/12 10:45:30;;;;;;;;;;;;;;;17.83;33.88;101132.81;5021046;28;1182;-55
2024/01/12 10:47:59;;;;;;;;;;;;;;;17.03;35.46;101133.16;5021369;28;1061;-55
2024/01/12 10:50:25;;;;;;;;;;;;;;;16.37;36.52;101132.44;5042808;28;944;-56
2024/01/12 10:53:09;;;;;;;;;;;;;;;17.15;35.23;101135.66;5021351;28;1104;-55
2024/01/12 10:55:35;;;;;;;;;;;;;;;17.69;34.01;101138.00;5038316;28;1917;-56
2024/01/12 10:58:02;;;;;;;;;;;;;;;16.69;36.06;101131.56;5011625;28;1092;-55
2024/01/12 11:00:28;;;;;;;;;;;;;;;16.20;36.99;101139.97;5038574;28;1064;-56
2024/01/12 11:02:54;;;;;;;;;;;;;;;16.94;35.95;101143.78;5020670;28;1223;-56
2024/01/12 11:05:20;;;;;;;;;;;;;;;17.92;33.80;101147.72;5046266;28;1426;-56
2024/01/12 11:07:46;;;;;;;;;;;;;;;16.79;35.96;101146.44;5043062;28;1048;-56
2024/01/12 11:10:12;;;;;;;;;;;;;;;16.23;37.07;101140.31;5038630;28;1036;-55
2024/01/12 11:12:37;;;;;;;;;;;;;;;17.10;35.70;101137.28;5020212;28;1283;-56
2024/01/12 11:15:04;;;;;;;;;;;;;;;18.10;33.56;101132.59;5036912;28;1964;-56
2024/01/12 11:17:30;;;;;;;;;;;;;;;16.90;35.89;101145.41;5020616;28;1045;-55
2024/01/12 11:20:11;;;;;;;;;;;;;;;16.37;36.92;101137.94;5038650;28;1136;-57
2024/01/12 11:22:38;;;;;;;;;;;;;;;16.68;36.48;101146.38;5038512;28;1032;-56
2024/01/12 11:25:03;;;;;;;;;;;;;;;17.99;34.03;101139.16;5038657;28;1036;-55
2024/01/12 11:27:30;;;;;;;;;;;;;;;16.86;35.86;101141.53;5020394;28;1268;-55
2024/01/12 11:29:59;;;;;;;;;;;;;;;16.26;36.92;101147.19;5038410;28;1134;-54
2024/01/12 11:32:26;;;;;;;;;;;;;;;17.04;35.57;101149.34;5038148;28;1096;-56
2024/01/12 11:34:51;;;;;;;;;;;;;;;18.13;33.60;101155.97;5037920;28;1905;-57
2024/01/12 11:37:17;;;;;;;;;;;;;;;16.98;35.74;101155.91;5037521;28;1234;-56
2024/01/12 11:39:44;;;;;;;;;;;;;;;16.37;36.65;101157.16;5038400;28;1189;-56
2024/01/12 11:42:10;;;;;;;;;;;;;;;16.79;36.02;101157.41;5038043;28;1103;-57
2024/01/12 11:44:36;;;;;;;;;;;;;;;18.04;33.74;101155.69;5020170;28;1255;-56
2024/01/12 11:47:05;;;;;;;;;;;;;;;17.01;35.70;101152.66;5043381;28;1100;-57
2024/01/12 11:49:30;;;;;;;;;;;;;;;16.34;36.92;101152.19;5019266;28;1392;-55
2024/01/12 11:52:05;;;;;;;;;;;;;;;16.20;37.34;101167.41;5036912;28;1162;-57
2024/01/12 11:54:31;;;;;;;;;;;;;;;17.71;34.34;101166.09;5037708;28;1910;-56
2024/01/12 11:56:57;;;;;;;;;;;;;;;17.72;34.25;101169.66;5037429;28;1152;-55
2024/01/12 11:59:22;;;;;;;;;;;;;;;16.68;36.29;101179.31;5037731;28;1134;-56
2024/01/12 12:01:48;;;;;;;;;;;;;;;16.19;37.15;101169.34;5041206;28;1458;-56
2024/01/12 12:04:19;;;;;;;;;;;;;;;17.09;35.75;101173.28;5036107;28;1423;-59
2024/01/12 12:06:46;;;;;;;;;;;;;;;17.89;33.83;101177.66;5037220;28;1059;-58
2024/01/12 12:09:12;;;;;;;;;;;;;;;16.73;35.91;101179.38;5037052;28;1395;-57
2024/01/12 12:11:38;;;;;;;;;;;;;;;16.22;36.93;101178.97;5045375;28;1203;-56
2024/01/12 12:14:03;;;;;;;;;;;;;;;17.37;35.09;101185.75;5044607;28;1906;-56
2024/01/12 12:16:29;;;;;;;;;;;;;;;17.78;34.09;101180.41;5037388;28;1131;-57
2024/01/12 12:18:55;;;;;;;;;;;;;;;16.69;36.31;101183.72;5037861;28;1060;-57
2024/01/12 12:21:21;;;;;;;;;;;;;;;16.19;37.06;101187.75;5037449;28;1056;-56
2024/01/12 12:23:47;;;;;;;;;;;;;;;17.39;34.88;101183.59;5037318;28;1219;-58
2024/01/12 12:26:12;;;;;;;;;;;;;;;17.65;34.49;101191.91;5037058;28;1432;-59
2024/01/12 12:28:38;;;;;;;;;;;;;;;16.66;36.17;101191.66;5037338;28;1452;-56
2024/01/12 12:31:07;;;;;;;;;;;;;;;16.19;37.29;101198.72;5041000;28;1132;-59
2024/01/12 12:33:33;;;;;;;;;;;;;;;17.39;34.96;101194.56;5036386;28;1270;-60
2024/01/12 12:36:08;;;;;;;;;;;;;;;17.64;34.22;101190.25;5037050;28;1989;-58
2024/01/12 12:38:37;;;;;;;;;;;;;;;16.60;36.48;101190.78;5037060;28;1147;-58
2024/01/12 12:41:03;;;;;;;;;;;;;;;16.07;37.62;101196.13;5037205;28;1040;-57